首页
METAR-TAF:

METAR-TAF

机场 :

仁川國際機場

仁川国际机场, 大韩民国

纬度: 37-28N, 经度: 126-27E, 海拔: 7米

当前天气观测

该预报发布于39分钟前的22:30 UTC
风速3节,风向,在北转西北东北之间变化
温度 -5°C
湿度 49%
气压 1025 hPa
能见度10公里或以上
1500米以下无云,无积雨云

METAR: RKSI 232230Z 01003KT 340V050 CAVOK M05/M14 Q1025 NOSIG

时间: 08:09 (23:09 UTC)

预报

该预报发布于6小时和9分钟前的17:00 UTC
预报有效从23日的 18点(UTC)到 24日的 24点(UTC)
风速10节,风向北转西北
能见度10公里或以上
1500米以下无云,无积雨云
成为
从 24日的 06点(UTC)到 24日的 07点(UTC)
风速7节,风向西
成为
从 24日的 09点(UTC)到 24日的 10点(UTC)
风速10节,风向北转西北
成为
从 24日的 23点(UTC)到 24日的 24点(UTC)
风速15节,风向西北,有时为25节阵风

TAF: RKSI 231700Z 2318/2424 33010KT CAVOK TNM04/2321Z TX02/2406Z TNM02/2421Z BECMG 2406/2407 27007KT BECMG 2409/2410 33010KT BECMG 2423/2424 32015G25KT

超过4000个机场的气象观测和天气预报(METAR&TAF报告)。

可查询的气象台以黄色和红色小点在地图上表示。

将鼠标移到小点上方,可查看气象台名称。

然后点击查看天气观测和预报。

如需切换地图:点击带黑十字的绿色按钮放大地图;点击带横线的绿色按钮缩小地图;或者点击绿色箭头查看邻近地区的地图。


METAR-TAF: